createdAt,value
2018-08-06T00:00:50.708Z,0
2018-08-06T00:01:49.584Z,0
2018-08-06T00:02:50.086Z,0
2018-08-06T00:03:50.090Z,0
2018-08-06T00:04:50.072Z,0
2018-08-06T00:05:49.809Z,0
2018-08-06T00:06:49.542Z,0
2018-08-06T00:07:50.057Z,0
2018-08-06T00:08:49.784Z,0
2018-08-06T00:09:50.097Z,0
2018-08-06T00:10:50.040Z,0
2018-08-06T00:11:50.026Z,0
2018-08-06T00:12:49.759Z,0
2018-08-06T00:13:49.760Z,0
2018-08-06T00:14:50.007Z,0
2018-08-06T00:15:49.748Z,0
2018-08-06T00:16:49.994Z,0
2018-08-06T00:17:49.992Z,0
2018-08-06T00:18:49.733Z,0
2018-08-06T00:19:49.718Z,0
2018-08-06T00:20:49.980Z,0
2018-08-06T00:21:49.965Z,0
2018-08-06T00:22:49.695Z,0
2018-08-06T00:23:49.698Z,0
2018-08-06T00:24:49.430Z,0
2018-08-06T00:25:49.678Z,0
2018-08-06T00:26:49.934Z,0
2018-08-06T00:27:49.935Z,0
2018-08-06T00:28:49.404Z,0
2018-08-06T00:29:49.881Z,0
2018-08-06T00:30:49.395Z,0
2018-08-06T00:31:49.901Z,0
2018-08-06T00:32:49.640Z,0
2018-08-06T00:33:49.368Z,0
2018-08-06T00:34:49.893Z,0
2018-08-06T00:35:49.626Z,0
2018-08-06T00:36:49.351Z,0
2018-08-06T00:37:49.862Z,0
2018-08-06T00:38:49.847Z,0
2018-08-06T00:39:49.587Z,0
2018-08-06T00:40:49.840Z,0
2018-08-06T00:41:49.843Z,0
2018-08-06T00:42:49.821Z,0
2018-08-06T00:43:49.559Z,0
2018-08-06T00:44:49.557Z,0
2018-08-06T00:45:49.804Z,0
2018-08-06T00:46:49.811Z,0
2018-08-06T00:47:49.796Z,0
2018-08-06T00:48:49.791Z,0
2018-08-06T00:49:49.519Z,0
2018-08-06T00:50:49.772Z,0
2018-08-06T00:51:49.498Z,0
2018-08-06T00:52:49.243Z,0
2018-08-06T00:53:49.755Z,0
2018-08-06T00:54:49.742Z,0
2018-08-06T00:55:49.216Z,0
2018-08-06T00:56:49.471Z,0
2018-08-06T00:57:49.220Z,0
2018-08-06T00:58:49.458Z,0
2018-08-06T00:59:49.711Z,0
2018-08-06T01:00:49.714Z,0
2018-08-06T01:01:49.180Z,0
2018-08-06T01:02:49.177Z,0
2018-08-06T01:03:49.680Z,0
2018-08-06T01:04:49.676Z,0
2018-08-06T01:05:48.901Z,0
2018-08-06T01:06:49.144Z,0
2018-08-06T01:07:49.409Z,0
2018-08-06T01:08:49.405Z,0
2018-08-06T01:09:49.639Z,0
2018-08-06T01:10:49.376Z,0
2018-08-06T01:11:49.625Z,0
2018-08-06T01:12:49.623Z,0
2018-08-06T01:13:49.093Z,0
2018-08-06T01:14:48.860Z,0
2018-08-06T01:15:49.341Z,0
2018-08-06T01:16:49.588Z,0
2018-08-06T01:17:49.334Z,0
2018-08-06T01:18:49.591Z,0
2018-08-06T01:19:49.317Z,0
2018-08-06T01:20:49.053Z,0
2018-08-06T01:21:49.298Z,0
2018-08-06T01:22:49.045Z,0
2018-08-06T01:23:49.285Z,0
2018-08-06T01:24:49.536Z,0
2018-08-06T01:25:49.294Z,0
2018-08-06T01:26:49.262Z,0
2018-08-06T01:27:49.509Z,0
2018-08-06T01:28:48.995Z,0
2018-08-06T01:29:49.503Z,0
2018-08-06T01:30:49.244Z,0
2018-08-06T01:31:49.234Z,0
2018-08-06T01:32:49.492Z,0
2018-08-06T01:33:48.961Z,0
2018-08-06T01:34:49.479Z,0
2018-08-06T01:35:49.462Z,0
2018-08-06T01:36:49.449Z,0
2018-08-06T01:37:49.449Z,0
2018-08-06T01:38:49.431Z,0
2018-08-06T01:39:49.425Z,0
2018-08-06T01:40:49.168Z,0
2018-08-06T01:41:49.157Z,0
2018-08-06T01:42:49.154Z,0
2018-08-06T01:43:49.135Z,0
2018-08-06T01:44:49.135Z,0
2018-08-06T01:45:49.644Z,0
2018-08-06T01:46:49.121Z,0
2018-08-06T01:47:49.113Z,0
2018-08-06T01:48:49.113Z,0
2018-08-06T01:49:49.356Z,0
2018-08-06T01:50:49.351Z,0
2018-08-06T01:51:49.335Z,0
2018-08-06T01:52:49.348Z,0
2018-08-06T01:53:49.077Z,0
2018-08-06T01:54:49.067Z,0
2018-08-06T01:55:48.809Z,0
2018-08-06T01:56:49.049Z,0
2018-08-06T01:57:49.047Z,0
2018-08-06T01:58:49.295Z,0
2018-08-06T01:59:49.023Z,0
2018-08-06T02:00:48.771Z,0
2018-08-06T02:01:49.274Z,0
2018-08-06T02:02:49.264Z,0
2018-08-06T02:03:49.001Z,0
2018-08-06T02:04:49.246Z,0
2018-08-06T02:05:48.988Z,0
2018-08-06T02:06:48.714Z,0
2018-08-06T02:07:48.968Z,0
2018-08-06T02:08:48.960Z,0
2018-08-06T02:09:48.952Z,0
2018-08-06T02:10:48.945Z,0
2018-08-06T02:11:49.194Z,0
2018-08-06T02:12:48.676Z,0
2018-08-06T02:13:48.916Z,0
2018-08-06T02:14:49.168Z,0
2018-08-06T02:15:49.168Z,0
2018-08-06T02:16:48.901Z,0
2018-08-06T02:17:49.148Z,0
2018-08-06T02:18:48.380Z,0
2018-08-06T02:19:48.618Z,0
2018-08-06T02:20:49.128Z,0
2018-08-06T02:21:48.863Z,0
2018-08-06T02:22:49.115Z,0
2018-08-06T02:23:48.856Z,0
2018-08-06T02:24:48.593Z,0
2018-08-06T02:25:48.827Z,0
2018-08-06T02:26:49.083Z,0
2018-08-06T02:27:49.083Z,0
2018-08-06T02:28:49.073Z,0
2018-08-06T02:29:49.063Z,0
2018-08-06T02:30:49.065Z,0
2018-08-06T02:31:48.531Z,0
2018-08-06T02:32:49.062Z,0
2018-08-06T02:33:48.781Z,0
2018-08-06T02:34:49.029Z,0
2018-08-06T02:35:49.028Z,0
2018-08-06T02:36:48.765Z,0
2018-08-06T02:37:48.253Z,0
2018-08-06T02:38:48.988Z,0
2018-08-06T02:39:48.736Z,0
2018-08-06T02:40:48.722Z,0
2018-08-06T02:41:48.715Z,0
2018-08-06T02:42:48.715Z,0
2018-08-06T02:43:48.441Z,0
2018-08-06T02:44:48.697Z,0
2018-08-06T02:45:48.942Z,0
2018-08-06T02:46:48.926Z,0
2018-08-06T02:47:48.665Z,0
2018-08-06T02:48:48.925Z,0
2018-08-06T02:49:48.657Z,0
2018-08-06T02:50:48.912Z,0
2018-08-06T02:51:48.894Z,0
2018-08-06T02:52:48.629Z,0
2018-08-06T02:53:48.647Z,0
2018-08-06T02:54:48.876Z,0
2018-08-06T02:55:48.600Z,0
2018-08-06T02:56:48.874Z,0
2018-08-06T02:57:48.851Z,0
2018-08-06T02:58:48.840Z,0
2018-08-06T02:59:48.574Z,0
2018-08-06T03:00:48.873Z,0
2018-08-06T03:01:48.047Z,0
2018-08-06T03:02:48.865Z,0
2018-08-06T03:03:48.812Z,0
2018-08-06T03:04:48.538Z,0
2018-08-06T03:05:48.796Z,0
2018-08-06T03:06:48.783Z,0
2018-08-06T03:07:48.524Z,0
2018-08-06T03:08:48.505Z,0
2018-08-06T03:09:48.757Z,0
2018-08-06T03:10:48.497Z,0
2018-08-06T03:11:48.252Z,0
2018-08-06T03:12:48.477Z,0
2018-08-06T03:13:48.468Z,0
2018-08-06T03:14:48.713Z,0
2018-08-06T03:15:48.452Z,0
2018-08-06T03:16:48.710Z,0
2018-08-06T03:17:48.705Z,0
2018-08-06T03:18:47.914Z,0
2018-08-06T03:19:48.419Z,0
2018-08-06T03:20:48.680Z,0
2018-08-06T03:21:48.152Z,0
2018-08-06T03:22:48.402Z,0
2018-08-06T03:23:48.652Z,0
2018-08-06T03:24:48.119Z,0
2018-08-06T03:25:48.115Z,0
2018-08-06T03:26:48.623Z,0
2018-08-06T03:27:48.624Z,0
2018-08-06T03:28:48.102Z,0
2018-08-06T03:29:49.044Z,0
2018-08-06T03:30:48.600Z,0
2018-08-06T03:31:48.595Z,0
2018-08-06T03:32:48.069Z,0
2018-08-06T03:33:48.313Z,0
2018-08-06T03:34:48.043Z,0
2018-08-06T03:35:48.295Z,0
2018-08-06T03:36:48.550Z,0
2018-08-06T03:37:48.284Z,0
2018-08-06T03:38:48.527Z,0
2018-08-06T03:39:48.257Z,0
2018-08-06T03:40:47.998Z,5
2018-08-06T03:41:47.733Z,5
2018-08-06T03:42:48.504Z,5
2018-08-06T03:43:48.497Z,5
2018-08-06T03:44:48.227Z,5
2018-08-06T03:45:48.475Z,5
2018-08-06T03:46:48.461Z,5
2018-08-06T03:47:48.456Z,5
2018-08-06T03:48:48.187Z,5
2018-08-06T03:49:47.929Z,10
2018-08-06T03:50:48.433Z,10
2018-08-06T03:51:48.165Z,10
2018-08-06T03:52:48.697Z,10
2018-08-06T03:53:48.159Z,10
2018-08-06T03:54:48.403Z,10
2018-08-06T03:55:48.136Z,10
2018-08-06T03:56:47.868Z,15
2018-08-06T03:57:48.122Z,15
2018-08-06T03:58:48.116Z,15
2018-08-06T03:59:47.590Z,15
2018-08-06T04:00:48.355Z,15
2018-08-06T04:01:48.096Z,15
2018-08-06T04:02:48.342Z,20
2018-08-06T04:03:47.556Z,20
2018-08-06T04:04:47.806Z,20
2018-08-06T04:05:48.307Z,20
2018-08-06T04:06:48.303Z,20
2018-08-06T04:07:48.304Z,20
2018-08-06T04:08:48.033Z,25
2018-08-06T04:09:48.284Z,25
2018-08-06T04:10:48.020Z,25
2018-08-06T04:11:48.260Z,25
2018-08-06T04:12:48.001Z,25
2018-08-06T04:13:48.082Z,30
2018-08-06T04:14:47.989Z,30
2018-08-06T04:15:48.233Z,30
2018-08-06T04:16:47.966Z,30
2018-08-06T04:17:48.244Z,30
2018-08-06T04:18:47.948Z,30
2018-08-06T04:19:48.131Z,35
2018-08-06T04:20:48.195Z,35
2018-08-06T04:21:48.180Z,35
2018-08-06T04:22:47.670Z,35
2018-08-06T04:23:48.167Z,35
2018-08-06T04:24:48.166Z,35
2018-08-06T04:25:48.157Z,35
2018-08-06T04:26:47.892Z,40
2018-08-06T04:27:47.879Z,40
2018-08-06T04:28:48.121Z,40
2018-08-06T04:29:47.859Z,40
2018-08-06T04:30:48.123Z,40
2018-08-06T04:31:47.848Z,40
2018-08-06T04:32:48.429Z,45
2018-08-06T04:33:48.100Z,45
2018-08-06T04:34:47.561Z,45
2018-08-06T04:35:47.821Z,45
2018-08-06T04:36:47.800Z,45
2018-08-06T04:37:47.798Z,45
2018-08-06T04:38:47.362Z,50
2018-08-06T04:39:48.042Z,50
2018-08-06T04:40:48.039Z,50
2018-08-06T04:41:47.765Z,50
2018-08-06T04:42:48.022Z,50
2018-08-06T04:43:47.750Z,50
2018-08-06T04:44:47.996Z,50
2018-08-06T04:45:47.733Z,55
2018-08-06T04:46:47.982Z,55
2018-08-06T04:47:47.717Z,55
2018-08-06T04:48:47.979Z,55
2018-08-06T04:49:47.960Z,55
2018-08-06T04:50:47.442Z,55
2018-08-06T04:51:47.946Z,55
2018-08-06T04:52:47.935Z,55
2018-08-06T04:53:47.420Z,60
2018-08-06T04:54:47.927Z,60
2018-08-06T04:55:47.914Z,60
2018-08-06T04:56:47.907Z,60
2018-08-06T04:57:47.643Z,60
2018-08-06T04:58:47.633Z,60
2018-08-06T04:59:48.289Z,60
2018-08-06T05:00:47.873Z,60
2018-08-06T05:01:47.610Z,65
2018-08-06T05:02:47.869Z,65
2018-08-06T05:03:47.344Z,65
2018-08-06T05:04:47.581Z,65
2018-08-06T05:05:47.583Z,65
2018-08-06T05:06:47.567Z,65
2018-08-06T05:07:47.821Z,65
2018-08-06T05:08:47.561Z,65
2018-08-06T05:09:47.544Z,65
2018-08-06T05:10:47.538Z,70
2018-08-06T05:11:47.790Z,70
2018-08-06T05:12:47.523Z,70
2018-08-06T05:13:47.856Z,70
2018-08-06T05:14:47.515Z,70
2018-08-06T05:15:47.770Z,70
2018-08-06T05:16:47.246Z,70
2018-08-06T05:17:47.752Z,70
2018-08-06T05:18:46.970Z,70
2018-08-06T05:19:46.953Z,70
2018-08-06T05:20:47.471Z,75
2018-08-06T05:21:47.720Z,75
2018-08-06T05:22:47.701Z,75
2018-08-06T05:23:47.704Z,75
2018-08-06T05:24:47.999Z,75
2018-08-06T05:25:47.431Z,75
2018-08-06T05:26:47.421Z,75
2018-08-06T05:27:47.426Z,75
2018-08-06T05:28:47.659Z,75
2018-08-06T05:29:47.393Z,75
2018-08-06T05:30:47.448Z,75
2018-08-06T05:31:47.389Z,75
2018-08-06T05:32:47.636Z,80
2018-08-06T05:33:47.369Z,80
2018-08-06T05:34:47.361Z,80
2018-08-06T05:35:47.352Z,80
2018-08-06T05:36:47.601Z,80
2018-08-06T05:37:47.344Z,80
2018-08-06T05:38:47.601Z,80
2018-08-06T05:39:47.070Z,80
2018-08-06T05:40:47.324Z,80
2018-08-06T05:41:47.327Z,80
2018-08-06T05:42:47.560Z,80
2018-08-06T05:43:47.569Z,80
2018-08-06T05:44:47.551Z,80
2018-08-06T05:45:47.539Z,80
2018-08-06T05:46:47.545Z,80
2018-08-06T05:47:47.540Z,85
2018-08-06T05:48:47.006Z,85
2018-08-06T05:49:47.508Z,85
2018-08-06T05:50:47.255Z,85
2018-08-06T05:51:46.992Z,85
2018-08-06T05:52:47.504Z,85
2018-08-06T05:53:47.241Z,85
2018-08-06T05:54:47.220Z,85
2018-08-06T05:55:47.225Z,85
2018-08-06T05:56:47.497Z,85
2018-08-06T05:57:47.208Z,85
2018-08-06T05:58:46.937Z,85
2018-08-06T05:59:47.186Z,85
2018-08-06T06:00:46.940Z,85
2018-08-06T06:01:47.177Z,85
2018-08-06T06:02:46.929Z,85
2018-08-06T06:03:47.182Z,85
2018-08-06T06:04:47.168Z,90
2018-08-06T06:05:47.164Z,90
2018-08-06T06:06:47.147Z,90
2018-08-06T06:07:47.152Z,90
2018-08-06T06:08:47.144Z,90
2018-08-06T06:09:47.137Z,90
2018-08-06T06:10:47.377Z,90
2018-08-06T06:11:47.369Z,90
2018-08-06T06:12:47.108Z,90
2018-08-06T06:13:47.364Z,90
2018-08-06T06:14:47.352Z,90
2018-08-06T06:15:47.349Z,90
2018-08-06T06:16:47.083Z,90
2018-08-06T06:17:47.364Z,90
2018-08-06T06:18:46.823Z,90
2018-08-06T06:19:47.070Z,90
2018-08-06T06:20:47.333Z,90
2018-08-06T06:21:47.328Z,90
2018-08-06T06:22:47.310Z,90
2018-08-06T06:23:47.311Z,90
2018-08-06T06:24:47.038Z,90
2018-08-06T06:25:47.156Z,90
2018-08-06T06:26:47.297Z,95
2018-08-06T06:27:47.281Z,95
2018-08-06T06:28:47.409Z,95
2018-08-06T06:29:47.010Z,95
2018-08-06T06:30:46.232Z,95
2018-08-06T06:31:47.007Z,95
2018-08-06T06:32:47.001Z,95
2018-08-06T06:33:46.730Z,100
2018-08-06T06:34:47.886Z,100
2018-08-06T06:35:46.978Z,100
2018-08-06T06:36:47.232Z,100
2018-08-06T06:37:46.712Z,100
2018-08-06T06:38:46.196Z,105
2018-08-06T06:39:46.959Z,110
2018-08-06T06:40:46.956Z,115
2018-08-06T06:41:47.494Z,115
2018-08-06T06:42:46.691Z,120
2018-08-06T06:43:46.681Z,135
2018-08-06T06:44:46.686Z,140
2018-08-06T06:45:47.184Z,130
2018-08-06T06:46:46.930Z,115
2018-08-06T06:47:46.661Z,115
2018-08-06T06:48:47.006Z,110
2018-08-06T06:49:46.393Z,140
2018-08-06T06:50:47.166Z,175
2018-08-06T06:51:47.217Z,170
2018-08-06T06:52:46.646Z,215
2018-08-06T06:53:47.153Z,260
2018-08-06T06:54:47.157Z,270
2018-08-06T06:55:46.888Z,335
2018-08-06T06:56:46.367Z,380
2018-08-06T06:57:46.884Z,375
2018-08-06T06:58:47.136Z,375
2018-08-06T06:59:46.872Z,385
2018-08-06T07:00:46.864Z,400
2018-08-06T07:01:46.613Z,395
2018-08-06T07:02:46.865Z,365
2018-08-06T07:03:46.609Z,355
2018-08-06T07:04:47.118Z,360
2018-08-06T07:05:46.873Z,360
2018-08-06T07:06:46.344Z,365
2018-08-06T07:07:47.134Z,365
2018-08-06T07:08:47.138Z,360
2018-08-06T07:09:46.858Z,355
2018-08-06T07:10:47.114Z,365
2018-08-06T07:11:47.140Z,370
2018-08-06T07:12:46.604Z,365
2018-08-06T07:13:47.354Z,355
2018-08-06T07:14:46.347Z,345
2018-08-06T07:15:46.864Z,345
2018-08-06T07:16:47.150Z,345
2018-08-06T07:17:46.612Z,350
2018-08-06T07:18:46.878Z,350
2018-08-06T07:19:46.883Z,350
2018-08-06T07:20:47.140Z,350
2018-08-06T07:21:47.156Z,350
2018-08-06T07:22:46.896Z,350
2018-08-06T07:23:46.902Z,350
2018-08-06T07:24:47.173Z,355
2018-08-06T07:25:46.903Z,370
2018-08-06T07:26:46.671Z,370
2018-08-06T07:27:46.913Z,375
2018-08-06T07:28:46.919Z,370
2018-08-06T07:29:46.922Z,380
2018-08-06T07:30:47.184Z,375
2018-08-06T07:31:47.191Z,380
2018-08-06T07:32:47.199Z,375
2018-08-06T07:33:47.538Z,365
2018-08-06T07:34:46.956Z,340
2018-08-06T07:35:47.223Z,285
2018-08-06T07:36:46.706Z,235
2018-08-06T07:37:46.977Z,195
2018-08-06T07:38:46.462Z,175
2018-08-06T07:39:46.992Z,160
2018-08-06T07:40:46.998Z,155
2018-08-06T07:41:47.264Z,150
2018-08-06T07:42:47.270Z,150
2018-08-06T07:43:47.015Z,145
2018-08-06T07:44:46.761Z,140
2018-08-06T07:45:47.033Z,140
2018-08-06T07:46:47.034Z,135
2018-08-06T07:47:47.050Z,135
2018-08-06T07:48:47.052Z,130
2018-08-06T07:49:47.359Z,130
2018-08-06T07:50:47.071Z,130
2018-08-06T07:51:47.067Z,130
2018-08-06T07:52:47.360Z,130
2018-08-06T07:53:46.829Z,130
2018-08-06T07:54:46.577Z,130
2018-08-06T07:55:47.365Z,130
2018-08-06T07:56:47.107Z,130
2018-08-06T07:57:47.371Z,125
2018-08-06T07:58:47.119Z,130
2018-08-06T07:59:47.344Z,130
2018-08-06T08:00:47.392Z,130
2018-08-06T08:01:47.155Z,125
2018-08-06T08:02:47.404Z,125
2018-08-06T08:03:47.412Z,125
2018-08-06T08:04:46.901Z,125
2018-08-06T08:05:47.424Z,125
2018-08-06T08:06:47.173Z,125
2018-08-06T08:07:47.439Z,125
2018-08-06T08:08:46.668Z,125
2018-08-06T08:09:47.191Z,125
2018-08-06T08:10:47.449Z,125
2018-08-06T08:11:47.251Z,125
2018-08-06T08:12:46.950Z,125
2018-08-06T08:13:47.210Z,125
2018-08-06T08:14:46.697Z,125
2018-08-06T08:15:47.477Z,125
2018-08-06T08:16:47.230Z,125
2018-08-06T08:17:47.492Z,125
2018-08-06T08:18:47.484Z,125
2018-08-06T08:19:48.156Z,130
2018-08-06T08:20:47.234Z,125
2018-08-06T08:21:46.979Z,125
2018-08-06T08:22:47.250Z,125
2018-08-06T08:23:46.998Z,125
2018-08-06T08:24:47.248Z,125
2018-08-06T08:25:46.999Z,125
2018-08-06T08:26:47.513Z,125
2018-08-06T08:27:47.276Z,125
2018-08-06T08:28:47.272Z,125
2018-08-06T08:29:47.530Z,125
2018-08-06T08:30:47.530Z,125
2018-08-06T08:31:47.275Z,125
2018-08-06T08:32:47.029Z,125
2018-08-06T08:33:47.279Z,125
2018-08-06T08:34:47.299Z,125
2018-08-06T08:35:47.539Z,125
2018-08-06T08:36:47.557Z,125
2018-08-06T08:37:47.294Z,125
2018-08-06T08:38:47.553Z,125
2018-08-06T08:39:47.241Z,125
2018-08-06T08:40:47.304Z,125
2018-08-06T08:41:47.054Z,125
2018-08-06T08:42:47.302Z,125
2018-08-06T08:43:47.311Z,125
2018-08-06T08:44:47.322Z,125
2018-08-06T08:45:47.712Z,125
2018-08-06T08:46:47.577Z,125
2018-08-06T08:47:47.316Z,125
2018-08-06T08:48:47.064Z,125
2018-08-06T08:49:47.582Z,125
2018-08-06T08:50:47.580Z,125
2018-08-06T08:51:47.606Z,125
2018-08-06T08:52:47.601Z,125
2018-08-06T08:53:47.083Z,125
2018-08-06T08:54:47.085Z,125
2018-08-06T08:55:47.336Z,125
2018-08-06T08:56:47.343Z,125
2018-08-06T08:57:47.598Z,125
2018-08-06T08:58:47.586Z,125
2018-08-06T08:59:47.093Z,125
2018-08-06T09:00:47.611Z,125
2018-08-06T09:01:47.625Z,125
2018-08-06T09:02:47.612Z,125
2018-08-06T09:03:47.626Z,125
2018-08-06T09:04:47.362Z,125
2018-08-06T09:05:47.363Z,125
2018-08-06T09:06:47.106Z,125
2018-08-06T09:07:47.628Z,125
2018-08-06T09:08:47.370Z,125
2018-08-06T09:09:47.639Z,125
2018-08-06T09:10:47.119Z,125
2018-08-06T09:11:47.377Z,125
2018-08-06T09:12:47.124Z,125
2018-08-06T09:13:47.639Z,125
2018-08-06T09:14:47.381Z,125
2018-08-06T09:15:47.657Z,125
2018-08-06T09:16:47.388Z,125
2018-08-06T09:17:47.641Z,125
2018-08-06T09:18:47.128Z,125
2018-08-06T09:19:47.392Z,125
2018-08-06T09:20:47.652Z,125
2018-08-06T09:21:47.404Z,125
2018-08-06T09:22:47.657Z,125
2018-08-06T09:23:46.885Z,125
2018-08-06T09:24:47.410Z,125
2018-08-06T09:25:47.656Z,125
2018-08-06T09:26:47.254Z,125
2018-08-06T09:27:47.686Z,125
2018-08-06T09:28:47.667Z,125
2018-08-06T09:29:47.416Z,125
2018-08-06T09:30:47.665Z,125
2018-08-06T09:31:47.678Z,125
2018-08-06T09:32:47.678Z,125
2018-08-06T09:33:47.675Z,125
2018-08-06T09:34:47.690Z,125
2018-08-06T09:35:47.431Z,125
2018-08-06T09:36:47.679Z,125
2018-08-06T09:37:47.691Z,125
2018-08-06T09:38:47.433Z,125
2018-08-06T09:39:47.432Z,125
2018-08-06T09:40:47.497Z,120
2018-08-06T09:41:47.436Z,125
2018-08-06T09:42:47.212Z,120
2018-08-06T09:43:47.696Z,120
2018-08-06T09:44:47.457Z,120
2018-08-06T09:45:47.454Z,120
2018-08-06T09:46:46.932Z,120
2018-08-06T09:47:47.220Z,120
2018-08-06T09:48:47.473Z,120
2018-08-06T09:49:47.457Z,120
2018-08-06T09:50:47.462Z,120
2018-08-06T09:51:46.954Z,120
2018-08-06T09:52:47.723Z,120
2018-08-06T09:53:47.471Z,120
2018-08-06T09:54:46.950Z,120
2018-08-06T09:55:47.471Z,120
2018-08-06T09:56:47.465Z,120
2018-08-06T09:57:47.745Z,120
2018-08-06T09:58:47.734Z,120
2018-08-06T09:59:46.962Z,120
2018-08-06T10:00:47.488Z,120
2018-08-06T10:01:47.483Z,120
2018-08-06T10:02:47.756Z,120
2018-08-06T10:03:47.487Z,120
2018-08-06T10:04:47.235Z,120
2018-08-06T10:05:48.215Z,120
2018-08-06T10:06:49.111Z,120
2018-08-06T10:07:47.762Z,120
2018-08-06T10:08:47.497Z,120
2018-08-06T10:09:47.249Z,125
2018-08-06T10:10:47.777Z,125
2018-08-06T10:11:47.761Z,125
2018-08-06T10:12:47.514Z,125
2018-08-06T10:13:47.818Z,125
2018-08-06T10:14:47.518Z,125
2018-08-06T10:15:47.785Z,125
2018-08-06T10:16:47.775Z,125
2018-08-06T10:17:47.831Z,125
2018-08-06T10:18:48.240Z,125
2018-08-06T10:19:48.268Z,125
2018-08-06T10:20:47.536Z,125
2018-08-06T10:21:47.803Z,125
2018-08-06T10:22:47.543Z,125
2018-08-06T10:23:47.529Z,125
2018-08-06T10:24:47.582Z,125
2018-08-06T10:25:47.797Z,120
2018-08-06T10:26:47.795Z,120
2018-08-06T10:27:47.544Z,120
2018-08-06T10:28:47.807Z,125
2018-08-06T10:29:47.547Z,125
2018-08-06T10:30:48.081Z,125
2018-08-06T10:31:47.811Z,125
2018-08-06T10:32:47.832Z,130
2018-08-06T10:33:47.561Z,130
2018-08-06T10:34:47.565Z,130
2018-08-06T10:35:47.310Z,130
2018-08-06T10:36:47.831Z,130
2018-08-06T10:37:47.573Z,130
2018-08-06T10:38:47.605Z,130
2018-08-06T10:39:47.574Z,130
2018-08-06T10:40:47.583Z,130
2018-08-06T10:41:47.324Z,130
2018-08-06T10:42:47.324Z,130
2018-08-06T10:43:47.590Z,130
2018-08-06T10:44:47.862Z,130
2018-08-06T10:45:47.333Z,125
2018-08-06T10:46:47.350Z,125
2018-08-06T10:47:47.603Z,125
2018-08-06T10:48:48.011Z,120
2018-08-06T10:49:47.346Z,120
2018-08-06T10:50:47.601Z,120
2018-08-06T10:51:47.880Z,130
2018-08-06T10:52:47.877Z,130
2018-08-06T10:53:47.691Z,125
2018-08-06T10:54:47.881Z,145
2018-08-06T10:55:47.885Z,145
2018-08-06T10:56:47.923Z,155
2018-08-06T10:57:47.894Z,165
2018-08-06T10:58:47.892Z,175
2018-08-06T10:59:48.124Z,180
2018-08-06T11:00:47.811Z,185
2018-08-06T11:01:47.385Z,190
2018-08-06T11:02:47.931Z,185
2018-08-06T11:03:47.894Z,190
2018-08-06T11:04:47.128Z,185
2018-08-06T11:05:47.389Z,180
2018-08-06T11:06:47.643Z,180
2018-08-06T11:07:47.905Z,180
2018-08-06T11:08:47.813Z,180
2018-08-06T11:09:47.926Z,180
2018-08-06T11:10:47.660Z,180
2018-08-06T11:11:47.678Z,175
2018-08-06T11:12:47.925Z,175
2018-08-06T11:13:47.672Z,170
2018-08-06T11:14:47.881Z,165
2018-08-06T11:15:47.673Z,160
2018-08-06T11:16:47.701Z,155
2018-08-06T11:17:47.693Z,150
2018-08-06T11:18:47.953Z,150
2018-08-06T11:19:47.711Z,150
2018-08-06T11:20:47.961Z,150
2018-08-06T11:21:47.441Z,150
2018-08-06T11:22:47.700Z,150
2018-08-06T11:23:47.706Z,150
2018-08-06T11:24:47.958Z,150
2018-08-06T11:25:47.461Z,150
2018-08-06T11:26:47.977Z,145
2018-08-06T11:27:47.717Z,145
2018-08-06T11:28:47.912Z,145
2018-08-06T11:29:47.975Z,145
2018-08-06T11:30:47.479Z,145
2018-08-06T11:31:47.478Z,145
2018-08-06T11:32:48.013Z,140
2018-08-06T11:33:47.742Z,140
2018-08-06T11:34:47.999Z,140
2018-08-06T11:35:48.003Z,140
2018-08-06T11:36:47.887Z,140
2018-08-06T11:37:48.020Z,135
2018-08-06T11:38:47.808Z,135
2018-08-06T11:39:48.018Z,135
2018-08-06T11:40:48.019Z,135
2018-08-06T11:41:47.767Z,135
2018-08-06T11:42:47.772Z,135
2018-08-06T11:43:47.769Z,135
2018-08-06T11:44:48.048Z,135
2018-08-06T11:45:47.521Z,130
2018-08-06T11:46:47.531Z,130
2018-08-06T11:47:48.058Z,125
2018-08-06T11:48:47.846Z,125
2018-08-06T11:49:48.055Z,125
2018-08-06T11:50:47.540Z,125
2018-08-06T11:51:48.055Z,125
2018-08-06T11:52:47.816Z,125
2018-08-06T11:53:48.072Z,125
2018-08-06T11:54:48.063Z,125
2018-08-06T11:55:47.562Z,120
2018-08-06T11:56:47.231Z,120
2018-08-06T11:57:48.081Z,120
2018-08-06T11:58:47.569Z,120
2018-08-06T11:59:47.824Z,120
2018-08-06T12:00:47.831Z,115
2018-08-06T12:01:48.192Z,115
2018-08-06T12:02:48.109Z,115
2018-08-06T12:03:47.590Z,115
2018-08-06T12:04:47.841Z,115
2018-08-06T12:05:47.711Z,115
2018-08-06T12:06:48.115Z,115
2018-08-06T12:07:47.868Z,115
2018-08-06T12:08:48.066Z,115
2018-08-06T12:09:48.117Z,115
2018-08-06T12:10:48.132Z,115
2018-08-06T12:11:47.873Z,110
2018-08-06T12:12:47.619Z,110
2018-08-06T12:13:48.539Z,110
2018-08-06T12:14:47.894Z,110
2018-08-06T12:15:47.950Z,110
2018-08-06T12:16:48.136Z,110
2018-08-06T12:17:48.156Z,110
2018-08-06T12:18:47.689Z,110
2018-08-06T12:19:47.903Z,110
2018-08-06T12:20:48.236Z,110
2018-08-06T12:21:48.193Z,110
2018-08-06T12:22:47.389Z,110
2018-08-06T12:23:48.176Z,110
2018-08-06T12:24:48.193Z,110
2018-08-06T12:25:48.429Z,110
2018-08-06T12:26:47.929Z,110
2018-08-06T12:27:48.183Z,110
2018-08-06T12:28:47.928Z,110
2018-08-06T12:29:48.192Z,115
2018-08-06T12:30:48.198Z,115
2018-08-06T12:31:47.967Z,115
2018-08-06T12:32:48.210Z,115
2018-08-06T12:33:48.213Z,115
2018-08-06T12:34:47.774Z,115
2018-08-06T12:35:48.221Z,115
2018-08-06T12:36:47.948Z,115
2018-08-06T12:37:47.963Z,115
2018-08-06T12:38:47.988Z,115
2018-08-06T12:39:47.972Z,115
2018-08-06T12:40:47.977Z,115
2018-08-06T12:41:47.463Z,115
2018-08-06T12:42:48.241Z,115
2018-08-06T12:43:47.976Z,115
2018-08-06T12:44:48.342Z,115
2018-08-06T12:45:48.242Z,115
2018-08-06T12:46:48.006Z,115
2018-08-06T12:47:48.261Z,115
2018-08-06T12:48:47.999Z,115
2018-08-06T12:49:47.998Z,115
2018-08-06T12:50:48.006Z,115
2018-08-06T12:51:48.362Z,115
2018-08-06T12:52:48.272Z,115
2018-08-06T12:53:48.285Z,115
2018-08-06T12:54:48.280Z,115
2018-08-06T12:55:48.287Z,115
2018-08-06T12:56:48.307Z,115
2018-08-06T12:57:47.776Z,115
2018-08-06T12:58:47.778Z,115
2018-08-06T12:59:48.297Z,115
2018-08-06T13:00:48.036Z,115
2018-08-06T13:01:48.302Z,115
2018-08-06T13:02:48.310Z,115
2018-08-06T13:03:48.053Z,115
2018-08-06T13:04:48.051Z,115
2018-08-06T13:05:48.062Z,115
2018-08-06T13:06:48.325Z,115
2018-08-06T13:07:48.062Z,115
2018-08-06T13:08:48.323Z,115
2018-08-06T13:09:48.326Z,115
2018-08-06T13:10:48.085Z,115
2018-08-06T13:11:47.571Z,115
2018-08-06T13:12:48.097Z,115
2018-08-06T13:13:48.352Z,115
2018-08-06T13:14:48.100Z,115
2018-08-06T13:15:48.363Z,115
2018-08-06T13:16:48.371Z,115
2018-08-06T13:17:48.379Z,115
2018-08-06T13:18:48.364Z,115
2018-08-06T13:19:47.852Z,115
2018-08-06T13:20:48.379Z,115
2018-08-06T13:21:48.377Z,115
2018-08-06T13:22:48.122Z,115
2018-08-06T13:23:47.873Z,115
2018-08-06T13:24:47.876Z,115
2018-08-06T13:25:48.400Z,115
2018-08-06T13:26:48.400Z,115
2018-08-06T13:27:48.143Z,115
2018-08-06T13:28:48.138Z,115
2018-08-06T13:29:47.891Z,115
2018-08-06T13:30:48.409Z,115
2018-08-06T13:31:47.904Z,115
2018-08-06T13:32:48.171Z,115
2018-08-06T13:33:48.427Z,115
2018-08-06T13:34:48.431Z,115
2018-08-06T13:35:47.926Z,115
2018-08-06T13:36:48.554Z,115
2018-08-06T13:37:47.929Z,115
2018-08-06T13:38:47.934Z,115
2018-08-06T13:39:48.197Z,115
2018-08-06T13:40:47.933Z,115
2018-08-06T13:41:48.217Z,115
2018-08-06T13:42:48.469Z,115
2018-08-06T13:43:47.955Z,115
2018-08-06T13:44:48.481Z,115
2018-08-06T13:45:48.258Z,115
2018-08-06T13:46:48.987Z,115
2018-08-06T13:47:48.235Z,115
2018-08-06T13:48:48.490Z,115
2018-08-06T13:49:48.500Z,115
2018-08-06T13:50:48.243Z,115
2018-08-06T13:51:48.249Z,115
2018-08-06T13:52:48.259Z,115
2018-08-06T13:53:48.516Z,115
2018-08-06T13:54:48.263Z,115
2018-08-06T13:55:48.552Z,115
2018-08-06T13:56:48.262Z,115
2018-08-06T13:57:48.280Z,115
2018-08-06T13:58:48.525Z,115
2018-08-06T13:59:48.033Z,115
2018-08-06T14:00:48.289Z,115
2018-08-06T14:01:48.313Z,115
2018-08-06T14:02:48.303Z,115
2018-08-06T14:03:48.034Z,115
2018-08-06T14:04:48.558Z,115
2018-08-06T14:05:48.558Z,115
2018-08-06T14:06:48.049Z,115
2018-08-06T14:07:48.314Z,115